sensor_id;sensor_type;location;lat;lon;timestamp;temperature;humidity
14182;DHT22;7171;50.936;6.764;2024-03-08T00:01:33;6.90;99.90
14182;DHT22;7171;50.936;6.764;2024-03-08T00:04:00;6.90;99.90
14182;DHT22;7171;50.936;6.764;2024-03-08T00:06:27;6.80;99.90
14182;DHT22;7171;50.936;6.764;2024-03-08T00:08:53;6.80;99.90
14182;DHT22;7171;50.936;6.764;2024-03-08T00:11:23;6.80;99.90
14182;DHT22;7171;50.936;6.764;2024-03-08T00:13:51;6.80;99.90
14182;DHT22;7171;50.936;6.764;2024-03-08T00:16:18;6.70;99.90
14182;DHT22;7171;50.936;6.764;2024-03-08T00:18:45;6.70;99.90
14182;DHT22;7171;50.936;6.764;2024-03-08T00:21:12;6.70;99.90
14182;DHT22;7171;50.936;6.764;2024-03-08T00:23:40;6.70;99.90
14182;DHT22;7171;50.936;6.764;2024-03-08T00:26:07;6.60;99.90
14182;DHT22;7171;50.936;6.764;2024-03-08T00:28:36;6.60;99.90
14182;DHT22;7171;50.936;6.764;2024-03-08T00:31:03;6.60;99.90
14182;DHT22;7171;50.936;6.764;2024-03-08T00:33:30;6.60;99.90
14182;DHT22;7171;50.936;6.764;2024-03-08T00:35:56;6.60;99.90
14182;DHT22;7171;50.936;6.764;2024-03-08T00:38:23;6.60;99.90
14182;DHT22;7171;50.936;6.764;2024-03-08T00:40:50;6.50;99.90
14182;DHT22;7171;50.936;6.764;2024-03-08T00:43:16;6.50;99.90
14182;DHT22;7171;50.936;6.764;2024-03-08T00:45:44;6.50;99.90
14182;DHT22;7171;50.936;6.764;2024-03-08T00:48:11;6.50;99.90
14182;DHT22;7171;50.936;6.764;2024-03-08T00:50:38;6.50;99.90
14182;DHT22;7171;50.936;6.764;2024-03-08T00:53:05;6.50;99.90
14182;DHT22;7171;50.936;6.764;2024-03-08T00:55:32;6.40;99.90
14182;DHT22;7171;50.936;6.764;2024-03-08T00:57:58;6.40;99.90
14182;DHT22;7171;50.936;6.764;2024-03-08T01:00:25;6.40;99.90
14182;DHT22;7171;50.936;6.764;2024-03-08T01:02:53;6.40;99.90
14182;DHT22;7171;50.936;6.764;2024-03-08T01:05:20;6.40;99.90
14182;DHT22;7171;50.936;6.764;2024-03-08T01:07:47;6.40;99.90
14182;DHT22;7171;50.936;6.764;2024-03-08T01:10:13;6.40;99.90
14182;DHT22;7171;50.936;6.764;2024-03-08T01:12:40;6.30;99.90
14182;DHT22;7171;50.936;6.764;2024-03-08T01:15:09;6.30;99.90
14182;DHT22;7171;50.936;6.764;2024-03-08T01:17:36;6.30;99.90
14182;DHT22;7171;50.936;6.764;2024-03-08T01:20:05;6.30;99.90
14182;DHT22;7171;50.936;6.764;2024-03-08T01:22:32;6.20;99.90
14182;DHT22;7171;50.936;6.764;2024-03-08T01:24:59;6.20;99.90
14182;DHT22;7171;50.936;6.764;2024-03-08T01:27:26;6.20;99.90
14182;DHT22;7171;50.936;6.764;2024-03-08T01:29:52;6.20;99.90
14182;DHT22;7171;50.936;6.764;2024-03-08T01:32:19;6.10;99.90
14182;DHT22;7171;50.936;6.764;2024-03-08T01:34:48;6.10;99.90
14182;DHT22;7171;50.936;6.764;2024-03-08T01:37:16;6.10;99.90
14182;DHT22;7171;50.936;6.764;2024-03-08T01:39:43;6.10;99.90
14182;DHT22;7171;50.936;6.764;2024-03-08T01:42:09;6.10;99.90
14182;DHT22;7171;50.936;6.764;2024-03-08T01:44:37;6.10;99.90
14182;DHT22;7171;50.936;6.764;2024-03-08T01:47:04;6.00;99.90
14182;DHT22;7171;50.936;6.764;2024-03-08T01:49:31;6.00;99.90
14182;DHT22;7171;50.936;6.764;2024-03-08T01:51:59;6.00;99.90
14182;DHT22;7171;50.936;6.764;2024-03-08T01:54:27;6.00;99.90
14182;DHT22;7171;50.936;6.764;2024-03-08T01:56:53;6.00;99.90
14182;DHT22;7171;50.936;6.764;2024-03-08T01:59:20;6.30;99.90
14182;DHT22;7171;50.936;6.764;2024-03-08T02:01:47;6.00;99.90
14182;DHT22;7171;50.936;6.764;2024-03-08T02:04:14;6.00;99.90
14182;DHT22;7171;50.936;6.764;2024-03-08T02:06:42;5.90;99.90
14182;DHT22;7171;50.936;6.764;2024-03-08T02:09:08;5.90;99.90
14182;DHT22;7171;50.936;6.764;2024-03-08T02:11:37;5.90;99.90
14182;DHT22;7171;50.936;6.764;2024-03-08T02:14:03;5.90;99.90
14182;DHT22;7171;50.936;6.764;2024-03-08T02:16:31;5.90;99.90
14182;DHT22;7171;50.936;6.764;2024-03-08T02:18:58;5.90;99.90
14182;DHT22;7171;50.936;6.764;2024-03-08T02:21:26;5.80;99.90
14182;DHT22;7171;50.936;6.764;2024-03-08T02:23:53;5.80;99.90
14182;DHT22;7171;50.936;6.764;2024-03-08T02:26:20;5.80;99.90
14182;DHT22;7171;50.936;6.764;2024-03-08T02:28:48;5.80;99.90
14182;DHT22;7171;50.936;6.764;2024-03-08T02:31:15;5.80;99.90
14182;DHT22;7171;50.936;6.764;2024-03-08T02:33:42;5.70;99.90
14182;DHT22;7171;50.936;6.764;2024-03-08T02:36:08;5.70;99.90
14182;DHT22;7171;50.936;6.764;2024-03-08T02:38:37;5.70;99.90
14182;DHT22;7171;50.936;6.764;2024-03-08T02:41:04;5.70;99.90
14182;DHT22;7171;50.936;6.764;2024-03-08T02:43:30;5.70;99.90
14182;DHT22;7171;50.936;6.764;2024-03-08T02:45:57;5.70;99.90
14182;DHT22;7171;50.936;6.764;2024-03-08T02:48:25;5.70;99.90
14182;DHT22;7171;50.936;6.764;2024-03-08T02:50:51;5.60;99.90
14182;DHT22;7171;50.936;6.764;2024-03-08T02:53:19;5.60;99.90
14182;DHT22;7171;50.936;6.764;2024-03-08T02:55:47;5.60;99.90
14182;DHT22;7171;50.936;6.764;2024-03-08T02:58:14;5.70;99.90
14182;DHT22;7171;50.936;6.764;2024-03-08T03:00:40;5.60;99.90
14182;DHT22;7171;50.936;6.764;2024-03-08T03:03:09;5.70;99.90
14182;DHT22;7171;50.936;6.764;2024-03-08T03:05:36;5.60;99.90
14182;DHT22;7171;50.936;6.764;2024-03-08T03:08:03;5.70;99.90
14182;DHT22;7171;50.936;6.764;2024-03-08T03:10:34;5.70;99.90
14182;DHT22;7171;50.936;6.764;2024-03-08T03:15:30;5.80;99.90
14182;DHT22;7171;50.936;6.764;2024-03-08T03:20:26;5.50;99.90
14182;DHT22;7171;50.936;6.764;2024-03-08T03:22:58;5.50;99.90
14182;DHT22;7171;50.936;6.764;2024-03-08T03:25:26;5.50;99.90
14182;DHT22;7171;50.936;6.764;2024-03-08T03:27:58;5.50;99.90
14182;DHT22;7171;50.936;6.764;2024-03-08T03:30:26;5.50;99.90
14182;DHT22;7171;50.936;6.764;2024-03-08T03:32:58;5.50;99.90
14182;DHT22;7171;50.936;6.764;2024-03-08T03:35:26;5.40;99.90
14182;DHT22;7171;50.936;6.764;2024-03-08T03:37:53;5.40;99.90
14182;DHT22;7171;50.936;6.764;2024-03-08T03:40:28;5.50;99.90
14182;DHT22;7171;50.936;6.764;2024-03-08T03:42:54;5.90;99.90
14182;DHT22;7171;50.936;6.764;2024-03-08T03:47:50;5.40;99.90
14182;DHT22;7171;50.936;6.764;2024-03-08T03:50:17;6.80;99.90
14182;DHT22;7171;50.936;6.764;2024-03-08T03:52:44;5.40;99.90
14182;DHT22;7171;50.936;6.764;2024-03-08T03:55:12;5.50;99.90
14182;DHT22;7171;50.936;6.764;2024-03-08T04:00:07;5.00;99.90
14182;DHT22;7171;50.936;6.764;2024-03-08T04:05:07;4.90;99.90
14182;DHT22;7171;50.936;6.764;2024-03-08T04:07:37;5.10;99.90
14182;DHT22;7171;50.936;6.764;2024-03-08T04:10:08;5.30;99.90
14182;DHT22;7171;50.936;6.764;2024-03-08T04:12:35;5.30;99.90
14182;DHT22;7171;50.936;6.764;2024-03-08T04:15:03;5.30;99.90
14182;DHT22;7171;50.936;6.764;2024-03-08T04:19:57;5.60;99.90
14182;DHT22;7171;50.936;6.764;2024-03-08T04:22:25;5.00;99.90
14182;DHT22;7171;50.936;6.764;2024-03-08T04:24:54;5.50;99.90
14182;DHT22;7171;50.936;6.764;2024-03-08T04:27:20;6.20;99.90
14182;DHT22;7171;50.936;6.764;2024-03-08T04:29:47;5.20;99.90
14182;DHT22;7171;50.936;6.764;2024-03-08T04:32:14;5.20;99.90
14182;DHT22;7171;50.936;6.764;2024-03-08T04:34:40;5.60;99.90
14182;DHT22;7171;50.936;6.764;2024-03-08T04:37:07;4.80;99.90
14182;DHT22;7171;50.936;6.764;2024-03-08T04:39:37;5.20;99.90
14182;DHT22;7171;50.936;6.764;2024-03-08T04:42:05;5.20;99.90
14182;DHT22;7171;50.936;6.764;2024-03-08T04:44:35;5.20;99.90
14182;DHT22;7171;50.936;6.764;2024-03-08T04:47:02;5.20;99.90
14182;DHT22;7171;50.936;6.764;2024-03-08T04:49:29;5.20;99.90
14182;DHT22;7171;50.936;6.764;2024-03-08T04:51:56;5.20;99.90
14182;DHT22;7171;50.936;6.764;2024-03-08T04:54:22;5.20;99.90
14182;DHT22;7171;50.936;6.764;2024-03-08T04:56:50;5.10;99.90
14182;DHT22;7171;50.936;6.764;2024-03-08T04:59:17;5.10;99.90
14182;DHT22;7171;50.936;6.764;2024-03-08T05:01:44;5.10;99.90
14182;DHT22;7171;50.936;6.764;2024-03-08T05:04:11;5.10;99.90
14182;DHT22;7171;50.936;6.764;2024-03-08T05:06:38;5.10;99.90
14182;DHT22;7171;50.936;6.764;2024-03-08T05:09:04;5.10;99.90
14182;DHT22;7171;50.936;6.764;2024-03-08T05:11:39;5.10;99.90
14182;DHT22;7171;50.936;6.764;2024-03-08T05:14:07;5.00;99.90
14182;DHT22;7171;50.936;6.764;2024-03-08T05:16:34;5.10;99.90
14182;DHT22;7171;50.936;6.764;2024-03-08T05:19:01;5.00;99.90
14182;DHT22;7171;50.936;6.764;2024-03-08T05:21:28;5.00;99.90
14182;DHT22;7171;50.936;6.764;2024-03-08T05:23:55;5.00;99.90
14182;DHT22;7171;50.936;6.764;2024-03-08T05:26:21;5.00;99.90
14182;DHT22;7171;50.936;6.764;2024-03-08T05:28:48;5.00;99.90
14182;DHT22;7171;50.936;6.764;2024-03-08T05:31:20;5.00;99.90
14182;DHT22;7171;50.936;6.764;2024-03-08T05:33:48;5.00;99.90
14182;DHT22;7171;50.936;6.764;2024-03-08T05:36:15;5.00;99.90
14182;DHT22;7171;50.936;6.764;2024-03-08T05:38:43;5.00;99.90
14182;DHT22;7171;50.936;6.764;2024-03-08T05:41:09;5.00;99.90
14182;DHT22;7171;50.936;6.764;2024-03-08T05:43:37;5.00;99.90
14182;DHT22;7171;50.936;6.764;2024-03-08T05:46:03;5.00;99.90
14182;DHT22;7171;50.936;6.764;2024-03-08T05:48:32;5.00;99.90
14182;DHT22;7171;50.936;6.764;2024-03-08T05:50:59;5.00;99.90
14182;DHT22;7171;50.936;6.764;2024-03-08T05:53:27;5.00;99.90
14182;DHT22;7171;50.936;6.764;2024-03-08T05:55:57;5.00;99.90
14182;DHT22;7171;50.936;6.764;2024-03-08T05:58:23;5.00;99.90
14182;DHT22;7171;50.936;6.764;2024-03-08T06:00:50;5.00;99.90
14182;DHT22;7171;50.936;6.764;2024-03-08T06:03:17;5.00;99.90
14182;DHT22;7171;50.936;6.764;2024-03-08T06:05:48;5.00;99.90
14182;DHT22;7171;50.936;6.764;2024-03-08T06:08:15;5.00;99.90
14182;DHT22;7171;50.936;6.764;2024-03-08T06:10:41;5.10;99.90
14182;DHT22;7171;50.936;6.764;2024-03-08T06:13:08;5.00;99.90
14182;DHT22;7171;50.936;6.764;2024-03-08T06:15:37;5.10;99.90
14182;DHT22;7171;50.936;6.764;2024-03-08T06:18:04;5.00;99.90
14182;DHT22;7171;50.936;6.764;2024-03-08T06:20:31;5.10;99.90
14182;DHT22;7171;50.936;6.764;2024-03-08T06:22:59;5.00;99.90
14182;DHT22;7171;50.936;6.764;2024-03-08T06:25:26;5.10;99.90
14182;DHT22;7171;50.936;6.764;2024-03-08T06:27:53;5.10;99.90
14182;DHT22;7171;50.936;6.764;2024-03-08T06:30:19;5.10;99.90
14182;DHT22;7171;50.936;6.764;2024-03-08T06:32:46;5.00;99.90
14182;DHT22;7171;50.936;6.764;2024-03-08T06:35:13;5.00;99.90
14182;DHT22;7171;50.936;6.764;2024-03-08T06:37:41;5.00;99.90
14182;DHT22;7171;50.936;6.764;2024-03-08T06:40:12;5.00;99.90
14182;DHT22;7171;50.936;6.764;2024-03-08T06:42:40;5.10;99.90
14182;DHT22;7171;50.936;6.764;2024-03-08T06:45:07;5.00;99.90
14182;DHT22;7171;50.936;6.764;2024-03-08T06:47:35;5.10;99.90
14182;DHT22;7171;50.936;6.764;2024-03-08T06:50:03;5.10;99.90
14182;DHT22;7171;50.936;6.764;2024-03-08T06:52:31;5.10;99.90
14182;DHT22;7171;50.936;6.764;2024-03-08T06:54:58;5.10;99.90
14182;DHT22;7171;50.936;6.764;2024-03-08T06:57:28;5.10;99.90
14182;DHT22;7171;50.936;6.764;2024-03-08T06:59:55;5.10;99.90
14182;DHT22;7171;50.936;6.764;2024-03-08T07:02:22;5.10;99.90
14182;DHT22;7171;50.936;6.764;2024-03-08T07:04:50;5.10;99.90
14182;DHT22;7171;50.936;6.764;2024-03-08T07:07:16;5.20;99.90
14182;DHT22;7171;50.936;6.764;2024-03-08T07:09:46;5.20;99.90
14182;DHT22;7171;50.936;6.764;2024-03-08T07:12:14;5.20;99.90
14182;DHT22;7171;50.936;6.764;2024-03-08T07:14:42;5.20;99.90
14182;DHT22;7171;50.936;6.764;2024-03-08T07:17:11;5.20;99.90
14182;DHT22;7171;50.936;6.764;2024-03-08T07:19:38;5.20;99.90
14182;DHT22;7171;50.936;6.764;2024-03-08T07:22:04;5.30;99.90
14182;DHT22;7171;50.936;6.764;2024-03-08T07:24:34;5.30;99.90
14182;DHT22;7171;50.936;6.764;2024-03-08T07:27:17;5.30;99.90
14182;DHT22;7171;50.936;6.764;2024-03-08T07:29:45;5.40;99.90
14182;DHT22;7171;50.936;6.764;2024-03-08T07:32:12;5.30;99.90
14182;DHT22;7171;50.936;6.764;2024-03-08T07:34:47;5.40;99.90
14182;DHT22;7171;50.936;6.764;2024-03-08T07:37:14;5.40;99.90
14182;DHT22;7171;50.936;6.764;2024-03-08T07:39:40;5.40;99.90
14182;DHT22;7171;50.936;6.764;2024-03-08T07:42:07;5.50;99.90
14182;DHT22;7171;50.936;6.764;2024-03-08T07:44:34;5.50;99.90
14182;DHT22;7171;50.936;6.764;2024-03-08T07:47:02;5.50;99.90
14182;DHT22;7171;50.936;6.764;2024-03-08T07:49:29;5.60;99.90
14182;DHT22;7171;50.936;6.764;2024-03-08T07:51:56;4.70;99.90
14182;DHT22;7171;50.936;6.764;2024-03-08T07:54:23;5.70;99.90
14182;DHT22;7171;50.936;6.764;2024-03-08T07:56:51;5.70;99.90
14182;DHT22;7171;50.936;6.764;2024-03-08T07:59:18;5.70;99.90
14182;DHT22;7171;50.936;6.764;2024-03-08T08:01:46;5.80;99.90
14182;DHT22;7171;50.936;6.764;2024-03-08T08:04:14;5.80;99.90
14182;DHT22;7171;50.936;6.764;2024-03-08T08:06:43;5.80;99.90
14182;DHT22;7171;50.936;6.764;2024-03-08T08:09:10;5.90;99.90
14182;DHT22;7171;50.936;6.764;2024-03-08T08:11:39;5.90;99.90
14182;DHT22;7171;50.936;6.764;2024-03-08T08:14:08;6.00;99.90
14182;DHT22;7171;50.936;6.764;2024-03-08T08:16:35;6.00;99.90
14182;DHT22;7171;50.936;6.764;2024-03-08T08:19:03;6.10;99.90
14182;DHT22;7171;50.936;6.764;2024-03-08T08:21:34;6.10;99.90
14182;DHT22;7171;50.936;6.764;2024-03-08T08:24:02;6.20;99.90
14182;DHT22;7171;50.936;6.764;2024-03-08T08:26:29;6.20;99.90
14182;DHT22;7171;50.936;6.764;2024-03-08T08:28:55;6.30;99.90
14182;DHT22;7171;50.936;6.764;2024-03-08T08:31:22;6.40;99.90
14182;DHT22;7171;50.936;6.764;2024-03-08T08:33:49;6.40;99.90
14182;DHT22;7171;50.936;6.764;2024-03-08T08:36:15;6.50;99.90
14182;DHT22;7171;50.936;6.764;2024-03-08T08:38:45;6.50;99.90
14182;DHT22;7171;50.936;6.764;2024-03-08T08:41:11;6.60;99.90
14182;DHT22;7171;50.936;6.764;2024-03-08T08:43:39;6.70;99.90
14182;DHT22;7171;50.936;6.764;2024-03-08T08:46:09;6.70;99.90
14182;DHT22;7171;50.936;6.764;2024-03-08T08:48:38;6.80;99.90
14182;DHT22;7171;50.936;6.764;2024-03-08T08:51:06;6.80;99.90
14182;DHT22;7171;50.936;6.764;2024-03-08T08:53:33;6.90;99.90
14182;DHT22;7171;50.936;6.764;2024-03-08T08:56:02;6.90;99.90
14182;DHT22;7171;50.936;6.764;2024-03-08T08:58:29;7.00;99.90
14182;DHT22;7171;50.936;6.764;2024-03-08T09:00:55;7.10;99.90
14182;DHT22;7171;50.936;6.764;2024-03-08T09:03:22;7.10;99.90
14182;DHT22;7171;50.936;6.764;2024-03-08T09:05:49;7.20;99.90
14182;DHT22;7171;50.936;6.764;2024-03-08T09:08:16;7.30;99.90
14182;DHT22;7171;50.936;6.764;2024-03-08T09:10:43;7.30;99.90
14182;DHT22;7171;50.936;6.764;2024-03-08T09:13:12;7.40;99.90
14182;DHT22;7171;50.936;6.764;2024-03-08T09:15:39;7.50;99.90
14182;DHT22;7171;50.936;6.764;2024-03-08T09:18:07;7.60;99.90
14182;DHT22;7171;50.936;6.764;2024-03-08T09:20:34;7.60;99.90
14182;DHT22;7171;50.936;6.764;2024-03-08T09:25:29;7.80;99.90
14182;DHT22;7171;50.936;6.764;2024-03-08T09:27:56;7.90;99.90
14182;DHT22;7171;50.936;6.764;2024-03-08T09:30:24;8.00;99.90
14182;DHT22;7171;50.936;6.764;2024-03-08T09:32:51;8.10;99.90
14182;DHT22;7171;50.936;6.764;2024-03-08T09:35:18;8.20;99.90
14182;DHT22;7171;50.936;6.764;2024-03-08T09:37:45;8.30;99.90
14182;DHT22;7171;50.936;6.764;2024-03-08T09:40:13;8.40;99.90
14182;DHT22;7171;50.936;6.764;2024-03-08T09:42:41;8.40;99.90
14182;DHT22;7171;50.936;6.764;2024-03-08T09:45:09;8.50;99.90
14182;DHT22;7171;50.936;6.764;2024-03-08T09:47:39;8.60;99.90
14182;DHT22;7171;50.936;6.764;2024-03-08T09:50:07;8.70;99.90
14182;DHT22;7171;50.936;6.764;2024-03-08T09:52:35;8.70;99.90
14182;DHT22;7171;50.936;6.764;2024-03-08T09:55:04;8.80;99.90
14182;DHT22;7171;50.936;6.764;2024-03-08T09:57:32;8.90;99.90
14182;DHT22;7171;50.936;6.764;2024-03-08T09:59:58;9.00;99.90
14182;DHT22;7171;50.936;6.764;2024-03-08T10:02:25;9.00;99.90
14182;DHT22;7171;50.936;6.764;2024-03-08T10:04:53;9.10;99.90
14182;DHT22;7171;50.936;6.764;2024-03-08T10:07:20;9.20;99.90
14182;DHT22;7171;50.936;6.764;2024-03-08T10:09:47;9.30;99.90
14182;DHT22;7171;50.936;6.764;2024-03-08T10:12:16;9.40;99.90
14182;DHT22;7171;50.936;6.764;2024-03-08T10:14:43;9.50;99.90
14182;DHT22;7171;50.936;6.764;2024-03-08T10:17:10;9.50;99.90
14182;DHT22;7171;50.936;6.764;2024-03-08T10:19:36;9.60;99.90
14182;DHT22;7171;50.936;6.764;2024-03-08T10:22:05;9.70;99.90
14182;DHT22;7171;50.936;6.764;2024-03-08T10:24:32;9.80;99.90
14182;DHT22;7171;50.936;6.764;2024-03-08T10:27:00;9.80;99.90
14182;DHT22;7171;50.936;6.764;2024-03-08T10:29:30;10.00;99.90
14182;DHT22;7171;50.936;6.764;2024-03-08T10:31:57;10.10;99.90
14182;DHT22;7171;50.936;6.764;2024-03-08T10:34:24;10.20;99.90
14182;DHT22;7171;50.936;6.764;2024-03-08T10:36:51;10.20;99.90
14182;DHT22;7171;50.936;6.764;2024-03-08T10:39:24;10.30;99.90
14182;DHT22;7171;50.936;6.764;2024-03-08T10:41:55;10.30;99.90
14182;DHT22;7171;50.936;6.764;2024-03-08T10:44:33;10.40;99.90
14182;DHT22;7171;50.936;6.764;2024-03-08T10:47:06;10.40;99.90
14182;DHT22;7171;50.936;6.764;2024-03-08T10:49:44;10.50;99.90
14182;DHT22;7171;50.936;6.764;2024-03-08T10:52:14;10.60;99.90
14182;DHT22;7171;50.936;6.764;2024-03-08T10:54:45;10.60;99.90
14182;DHT22;7171;50.936;6.764;2024-03-08T10:57:12;10.70;99.90
14182;DHT22;7171;50.936;6.764;2024-03-08T10:59:40;10.80;99.90
14182;DHT22;7171;50.936;6.764;2024-03-08T11:02:10;10.80;99.90
14182;DHT22;7171;50.936;6.764;2024-03-08T11:04:37;10.90;99.90
14182;DHT22;7171;50.936;6.764;2024-03-08T11:07:04;10.90;99.90
14182;DHT22;7171;50.936;6.764;2024-03-08T11:09:33;11.00;99.90
14182;DHT22;7171;50.936;6.764;2024-03-08T11:14:52;11.10;99.90
14182;DHT22;7171;50.936;6.764;2024-03-08T11:17:26;11.10;99.90
14182;DHT22;7171;50.936;6.764;2024-03-08T11:19:56;11.20;99.90
14182;DHT22;7171;50.936;6.764;2024-03-08T11:22:28;11.20;99.90
14182;DHT22;7171;50.936;6.764;2024-03-08T11:24:58;11.30;99.90
14182;DHT22;7171;50.936;6.764;2024-03-08T11:27:30;11.30;99.90
14182;DHT22;7171;50.936;6.764;2024-03-08T11:30:03;11.30;99.90
14182;DHT22;7171;50.936;6.764;2024-03-08T11:32:36;11.30;99.90
14182;DHT22;7171;50.936;6.764;2024-03-08T11:35:06;11.40;99.90
14182;DHT22;7171;50.936;6.764;2024-03-08T11:37:34;11.40;99.90
14182;DHT22;7171;50.936;6.764;2024-03-08T11:40:01;11.50;99.90
14182;DHT22;7171;50.936;6.764;2024-03-08T11:42:31;11.50;99.90
14182;DHT22;7171;50.936;6.764;2024-03-08T11:44:58;11.50;99.90
14182;DHT22;7171;50.936;6.764;2024-03-08T11:47:24;11.60;99.90
14182;DHT22;7171;50.936;6.764;2024-03-08T11:49:52;11.60;99.90
14182;DHT22;7171;50.936;6.764;2024-03-08T11:52:19;11.60;99.90
14182;DHT22;7171;50.936;6.764;2024-03-08T11:54:51;11.70;99.90
14182;DHT22;7171;50.936;6.764;2024-03-08T11:57:19;11.70;99.90
14182;DHT22;7171;50.936;6.764;2024-03-08T11:59:51;11.80;99.90
14182;DHT22;7171;50.936;6.764;2024-03-08T12:02:17;11.80;99.90
14182;DHT22;7171;50.936;6.764;2024-03-08T12:04:45;11.90;99.90
14182;DHT22;7171;50.936;6.764;2024-03-08T12:07:12;11.90;99.90
14182;DHT22;7171;50.936;6.764;2024-03-08T12:09:40;11.90;99.90
14182;DHT22;7171;50.936;6.764;2024-03-08T12:12:11;11.90;99.90
14182;DHT22;7171;50.936;6.764;2024-03-08T12:14:38;12.00;99.90
14182;DHT22;7171;50.936;6.764;2024-03-08T12:17:08;12.00;99.90
14182;DHT22;7171;50.936;6.764;2024-03-08T12:19:35;12.00;99.90
14182;DHT22;7171;50.936;6.764;2024-03-08T12:22:08;12.00;99.90
14182;DHT22;7171;50.936;6.764;2024-03-08T12:24:36;12.00;99.90
14182;DHT22;7171;50.936;6.764;2024-03-08T12:27:17;12.00;99.90
14182;DHT22;7171;50.936;6.764;2024-03-08T12:29:44;12.00;99.90
14182;DHT22;7171;50.936;6.764;2024-03-08T12:32:13;12.00;99.90
14182;DHT22;7171;50.936;6.764;2024-03-08T12:34:40;12.00;99.90
14182;DHT22;7171;50.936;6.764;2024-03-08T12:37:07;12.00;99.90
14182;DHT22;7171;50.936;6.764;2024-03-08T12:39:35;12.00;99.90
14182;DHT22;7171;50.936;6.764;2024-03-08T12:42:02;12.10;99.90
14182;DHT22;7171;50.936;6.764;2024-03-08T12:44:29;12.10;99.90
14182;DHT22;7171;50.936;6.764;2024-03-08T12:46:56;12.10;99.90
14182;DHT22;7171;50.936;6.764;2024-03-08T12:49:25;12.10;99.90
14182;DHT22;7171;50.936;6.764;2024-03-08T12:51:52;12.10;99.90
14182;DHT22;7171;50.936;6.764;2024-03-08T12:54:19;12.20;99.90
14182;DHT22;7171;50.936;6.764;2024-03-08T12:56:48;12.20;99.90
14182;DHT22;7171;50.936;6.764;2024-03-08T12:59:18;12.20;99.90
14182;DHT22;7171;50.936;6.764;2024-03-08T13:01:47;12.20;99.90
14182;DHT22;7171;50.936;6.764;2024-03-08T13:04:13;12.20;99.90
14182;DHT22;7171;50.936;6.764;2024-03-08T13:06:42;12.20;99.90
14182;DHT22;7171;50.936;6.764;2024-03-08T13:09:08;12.30;99.90
14182;DHT22;7171;50.936;6.764;2024-03-08T13:11:35;12.30;99.90
14182;DHT22;7171;50.936;6.764;2024-03-08T13:14:03;12.40;99.90
14182;DHT22;7171;50.936;6.764;2024-03-08T13:16:30;12.40;99.90
14182;DHT22;7171;50.936;6.764;2024-03-08T13:18:57;12.40;99.90
14182;DHT22;7171;50.936;6.764;2024-03-08T13:21:24;12.40;99.90
14182;DHT22;7171;50.936;6.764;2024-03-08T13:23:52;12.40;99.90
14182;DHT22;7171;50.936;6.764;2024-03-08T13:26:20;12.40;99.90
14182;DHT22;7171;50.936;6.764;2024-03-08T13:28:47;12.50;99.90
14182;DHT22;7171;50.936;6.764;2024-03-08T13:31:19;12.50;99.90
14182;DHT22;7171;50.936;6.764;2024-03-08T13:33:45;12.50;99.90
14182;DHT22;7171;50.936;6.764;2024-03-08T13:36:13;12.50;99.90
14182;DHT22;7171;50.936;6.764;2024-03-08T13:38:42;12.50;99.90
14182;DHT22;7171;50.936;6.764;2024-03-08T13:41:11;12.50;99.90
14182;DHT22;7171;50.936;6.764;2024-03-08T13:43:40;12.60;99.90
14182;DHT22;7171;50.936;6.764;2024-03-08T13:46:07;12.60;99.90
14182;DHT22;7171;50.936;6.764;2024-03-08T13:48:35;12.70;99.90
14182;DHT22;7171;50.936;6.764;2024-03-08T13:51:03;12.70;99.90
14182;DHT22;7171;50.936;6.764;2024-03-08T13:53:30;12.70;99.90
14182;DHT22;7171;50.936;6.764;2024-03-08T13:55:57;12.80;99.90
14182;DHT22;7171;50.936;6.764;2024-03-08T13:58:25;12.80;99.90
14182;DHT22;7171;50.936;6.764;2024-03-08T14:00:52;12.90;99.90
14182;DHT22;7171;50.936;6.764;2024-03-08T14:03:19;12.90;99.90
14182;DHT22;7171;50.936;6.764;2024-03-08T14:05:46;12.90;99.90
14182;DHT22;7171;50.936;6.764;2024-03-08T14:08:13;13.00;99.90
14182;DHT22;7171;50.936;6.764;2024-03-08T14:10:41;13.00;99.90
14182;DHT22;7171;50.936;6.764;2024-03-08T14:13:08;13.10;99.90
14182;DHT22;7171;50.936;6.764;2024-03-08T14:15:38;13.10;99.90
14182;DHT22;7171;50.936;6.764;2024-03-08T14:18:08;13.10;99.90
14182;DHT22;7171;50.936;6.764;2024-03-08T14:20:34;13.10;99.90
14182;DHT22;7171;50.936;6.764;2024-03-08T14:23:01;13.10;99.90
14182;DHT22;7171;50.936;6.764;2024-03-08T14:25:28;13.10;99.90
14182;DHT22;7171;50.936;6.764;2024-03-08T14:27:55;13.10;99.90
14182;DHT22;7171;50.936;6.764;2024-03-08T14:30:24;13.00;99.90
14182;DHT22;7171;50.936;6.764;2024-03-08T14:33:02;13.00;99.90
14182;DHT22;7171;50.936;6.764;2024-03-08T14:35:30;13.00;99.90
14182;DHT22;7171;50.936;6.764;2024-03-08T14:37:57;13.00;99.90
14182;DHT22;7171;50.936;6.764;2024-03-08T14:40:26;13.10;99.90
14182;DHT22;7171;50.936;6.764;2024-03-08T14:42:53;13.10;99.90
14182;DHT22;7171;50.936;6.764;2024-03-08T14:45:19;13.10;99.90
14182;DHT22;7171;50.936;6.764;2024-03-08T14:47:46;13.10;99.90
14182;DHT22;7171;50.936;6.764;2024-03-08T14:50:17;13.10;99.90
14182;DHT22;7171;50.936;6.764;2024-03-08T14:52:44;13.10;99.90
14182;DHT22;7171;50.936;6.764;2024-03-08T14:55:14;13.10;99.90
14182;DHT22;7171;50.936;6.764;2024-03-08T14:57:41;13.20;99.90
14182;DHT22;7171;50.936;6.764;2024-03-08T15:00:11;13.10;99.90
14182;DHT22;7171;50.936;6.764;2024-03-08T15:02:52;13.20;99.90
14182;DHT22;7171;50.936;6.764;2024-03-08T15:05:20;13.20;99.90
14182;DHT22;7171;50.936;6.764;2024-03-08T15:07:52;13.20;99.90
14182;DHT22;7171;50.936;6.764;2024-03-08T15:10:19;13.20;99.90
14182;DHT22;7171;50.936;6.764;2024-03-08T15:12:48;13.20;99.90
14182;DHT22;7171;50.936;6.764;2024-03-08T15:15:15;13.30;99.90
14182;DHT22;7171;50.936;6.764;2024-03-08T15:17:43;13.30;99.90
14182;DHT22;7171;50.936;6.764;2024-03-08T15:20:12;13.30;99.90
14182;DHT22;7171;50.936;6.764;2024-03-08T15:22:46;13.30;99.90
14182;DHT22;7171;50.936;6.764;2024-03-08T15:25:13;13.30;99.90
14182;DHT22;7171;50.936;6.764;2024-03-08T15:27:46;13.40;99.90
14182;DHT22;7171;50.936;6.764;2024-03-08T15:30:14;13.40;99.90
14182;DHT22;7171;50.936;6.764;2024-03-08T15:32:44;13.40;99.90
14182;DHT22;7171;50.936;6.764;2024-03-08T15:35:11;13.40;99.90
14182;DHT22;7171;50.936;6.764;2024-03-08T15:37:40;13.40;99.90
14182;DHT22;7171;50.936;6.764;2024-03-08T15:40:11;13.40;99.90
14182;DHT22;7171;50.936;6.764;2024-03-08T15:42:47;13.50;99.90
14182;DHT22;7171;50.936;6.764;2024-03-08T15:45:14;13.50;99.90
14182;DHT22;7171;50.936;6.764;2024-03-08T15:47:41;13.60;99.90
14182;DHT22;7171;50.936;6.764;2024-03-08T15:50:09;13.60;99.90
14182;DHT22;7171;50.936;6.764;2024-03-08T15:52:37;13.80;99.90
14182;DHT22;7171;50.936;6.764;2024-03-08T15:55:06;13.90;99.90
14182;DHT22;7171;50.936;6.764;2024-03-08T15:57:34;14.10;99.90
14182;DHT22;7171;50.936;6.764;2024-03-08T16:00:01;14.30;99.90
14182;DHT22;7171;50.936;6.764;2024-03-08T16:02:39;14.50;99.90
14182;DHT22;7171;50.936;6.764;2024-03-08T16:05:07;14.70;99.90
14182;DHT22;7171;50.936;6.764;2024-03-08T16:07:35;14.80;99.90
14182;DHT22;7171;50.936;6.764;2024-03-08T16:10:02;15.00;99.90
14182;DHT22;7171;50.936;6.764;2024-03-08T16:12:28;15.10;99.90
14182;DHT22;7171;50.936;6.764;2024-03-08T16:14:56;15.10;99.90
14182;DHT22;7171;50.936;6.764;2024-03-08T16:17:23;15.20;99.90
14182;DHT22;7171;50.936;6.764;2024-03-08T16:19:50;15.00;99.90